sensor_id;sensor_type;location;lat;lon;timestamp;P1;durP1;ratioP1;P2;durP2;ratioP2
4766;SDS011;2397;53.576;9.746;2022-07-10T00:01:22;5.30;;;1.53;;
4766;SDS011;2397;53.576;9.746;2022-07-10T00:03:47;4.23;;;1.80;;
4766;SDS011;2397;53.576;9.746;2022-07-10T00:06:14;3.83;;;1.57;;
4766;SDS011;2397;53.576;9.746;2022-07-10T00:08:40;7.77;;;2.17;;
4766;SDS011;2397;53.576;9.746;2022-07-10T00:11:07;4.17;;;2.23;;
4766;SDS011;2397;53.576;9.746;2022-07-10T00:13:33;2.13;;;1.50;;
4766;SDS011;2397;53.576;9.746;2022-07-10T00:15:58;8.10;;;2.13;;
4766;SDS011;2397;53.576;9.746;2022-07-10T00:18:24;3.00;;;1.90;;
4766;SDS011;2397;53.576;9.746;2022-07-10T00:20:49;7.20;;;1.57;;
4766;SDS011;2397;53.576;9.746;2022-07-10T00:23:14;10.20;;;2.10;;
4766;SDS011;2397;53.576;9.746;2022-07-10T00:25:40;5.77;;;1.90;;
4766;SDS011;2397;53.576;9.746;2022-07-10T00:28:05;2.70;;;1.50;;
4766;SDS011;2397;53.576;9.746;2022-07-10T00:30:30;6.93;;;1.83;;
4766;SDS011;2397;53.576;9.746;2022-07-10T00:32:55;4.20;;;1.37;;
4766;SDS011;2397;53.576;9.746;2022-07-10T00:35:21;5.00;;;1.73;;
4766;SDS011;2397;53.576;9.746;2022-07-10T00:37:46;2.90;;;1.60;;
4766;SDS011;2397;53.576;9.746;2022-07-10T00:40:11;7.03;;;1.53;;
4766;SDS011;2397;53.576;9.746;2022-07-10T00:42:37;4.87;;;1.80;;
4766;SDS011;2397;53.576;9.746;2022-07-10T00:45:02;3.57;;;1.70;;
4766;SDS011;2397;53.576;9.746;2022-07-10T00:47:28;2.83;;;1.63;;
4766;SDS011;2397;53.576;9.746;2022-07-10T00:49:53;3.20;;;1.60;;
4766;SDS011;2397;53.576;9.746;2022-07-10T00:52:18;3.53;;;1.63;;
4766;SDS011;2397;53.576;9.746;2022-07-10T00:54:45;3.27;;;1.80;;
4766;SDS011;2397;53.576;9.746;2022-07-10T00:57:12;2.20;;;1.30;;
4766;SDS011;2397;53.576;9.746;2022-07-10T00:59:39;5.80;;;1.50;;
4766;SDS011;2397;53.576;9.746;2022-07-10T01:02:05;3.07;;;1.20;;
4766;SDS011;2397;53.576;9.746;2022-07-10T01:04:31;3.23;;;1.30;;
4766;SDS011;2397;53.576;9.746;2022-07-10T01:06:57;3.40;;;1.80;;
4766;SDS011;2397;53.576;9.746;2022-07-10T01:09:22;2.93;;;1.63;;
4766;SDS011;2397;53.576;9.746;2022-07-10T01:11:47;5.33;;;1.87;;
4766;SDS011;2397;53.576;9.746;2022-07-10T01:14:14;9.20;;;2.00;;
4766;SDS011;2397;53.576;9.746;2022-07-10T01:16:40;4.47;;;2.03;;
4766;SDS011;2397;53.576;9.746;2022-07-10T01:19:06;8.53;;;2.40;;
4766;SDS011;2397;53.576;9.746;2022-07-10T01:21:32;3.73;;;2.07;;
4766;SDS011;2397;53.576;9.746;2022-07-10T01:23:58;1.70;;;1.60;;
4766;SDS011;2397;53.576;9.746;2022-07-10T01:26:25;6.30;;;1.87;;
4766;SDS011;2397;53.576;9.746;2022-07-10T01:28:51;5.17;;;1.73;;
4766;SDS011;2397;53.576;9.746;2022-07-10T01:31:18;4.23;;;2.13;;
4766;SDS011;2397;53.576;9.746;2022-07-10T01:33:44;2.73;;;1.70;;
4766;SDS011;2397;53.576;9.746;2022-07-10T01:36:11;5.33;;;1.70;;
4766;SDS011;2397;53.576;9.746;2022-07-10T01:38:36;2.73;;;1.50;;
4766;SDS011;2397;53.576;9.746;2022-07-10T01:41:02;4.23;;;1.80;;
4766;SDS011;2397;53.576;9.746;2022-07-10T01:43:27;5.23;;;1.50;;
4766;SDS011;2397;53.576;9.746;2022-07-10T01:45:52;4.70;;;1.60;;
4766;SDS011;2397;53.576;9.746;2022-07-10T01:48:18;4.33;;;2.17;;
4766;SDS011;2397;53.576;9.746;2022-07-10T01:50:43;5.67;;;1.87;;
4766;SDS011;2397;53.576;9.746;2022-07-10T01:53:08;7.83;;;2.17;;
4766;SDS011;2397;53.576;9.746;2022-07-10T01:55:33;10.00;;;2.30;;
4766;SDS011;2397;53.576;9.746;2022-07-10T01:57:59;5.47;;;2.10;;
4766;SDS011;2397;53.576;9.746;2022-07-10T02:00:24;7.87;;;2.17;;
4766;SDS011;2397;53.576;9.746;2022-07-10T02:02:50;4.70;;;1.90;;
4766;SDS011;2397;53.576;9.746;2022-07-10T02:05:33;11.73;;;2.30;;
4766;SDS011;2397;53.576;9.746;2022-07-10T02:07:59;10.50;;;2.40;;
4766;SDS011;2397;53.576;9.746;2022-07-10T02:10:24;6.03;;;2.40;;
4766;SDS011;2397;53.576;9.746;2022-07-10T02:12:49;12.83;;;2.17;;
4766;SDS011;2397;53.576;9.746;2022-07-10T02:15:15;5.90;;;2.10;;
4766;SDS011;2397;53.576;9.746;2022-07-10T02:17:40;3.37;;;2.17;;
4766;SDS011;2397;53.576;9.746;2022-07-10T02:20:05;8.50;;;2.07;;
4766;SDS011;2397;53.576;9.746;2022-07-10T02:22:31;5.53;;;1.97;;
4766;SDS011;2397;53.576;9.746;2022-07-10T02:24:56;6.70;;;2.07;;
4766;SDS011;2397;53.576;9.746;2022-07-10T02:27:21;5.10;;;2.50;;
4766;SDS011;2397;53.576;9.746;2022-07-10T02:29:47;5.57;;;2.10;;
4766;SDS011;2397;53.576;9.746;2022-07-10T02:32:12;4.03;;;1.83;;
4766;SDS011;2397;53.576;9.746;2022-07-10T02:34:38;8.23;;;2.30;;
4766;SDS011;2397;53.576;9.746;2022-07-10T02:37:03;10.50;;;2.30;;
4766;SDS011;2397;53.576;9.746;2022-07-10T02:39:28;3.37;;;1.87;;
4766;SDS011;2397;53.576;9.746;2022-07-10T02:41:54;7.97;;;2.20;;
4766;SDS011;2397;53.576;9.746;2022-07-10T02:44:19;11.63;;;2.30;;
4766;SDS011;2397;53.576;9.746;2022-07-10T02:46:45;6.70;;;2.43;;
4766;SDS011;2397;53.576;9.746;2022-07-10T02:49:10;7.60;;;3.13;;
4766;SDS011;2397;53.576;9.746;2022-07-10T02:51:35;5.80;;;2.23;;
4766;SDS011;2397;53.576;9.746;2022-07-10T02:54:01;7.10;;;2.60;;
4766;SDS011;2397;53.576;9.746;2022-07-10T02:56:27;4.30;;;1.70;;
4766;SDS011;2397;53.576;9.746;2022-07-10T02:58:52;5.03;;;2.03;;
4766;SDS011;2397;53.576;9.746;2022-07-10T03:01:18;7.97;;;2.40;;
4766;SDS011;2397;53.576;9.746;2022-07-10T03:03:43;8.20;;;2.43;;
4766;SDS011;2397;53.576;9.746;2022-07-10T03:06:08;8.10;;;2.17;;
4766;SDS011;2397;53.576;9.746;2022-07-10T03:08:34;10.07;;;2.50;;
4766;SDS011;2397;53.576;9.746;2022-07-10T03:10:59;14.53;;;2.40;;
4766;SDS011;2397;53.576;9.746;2022-07-10T03:13:24;8.03;;;2.60;;
4766;SDS011;2397;53.576;9.746;2022-07-10T03:15:49;13.20;;;2.70;;
4766;SDS011;2397;53.576;9.746;2022-07-10T03:18:15;5.90;;;2.30;;
4766;SDS011;2397;53.576;9.746;2022-07-10T03:20:40;8.33;;;2.60;;
4766;SDS011;2397;53.576;9.746;2022-07-10T03:23:05;5.30;;;2.60;;
4766;SDS011;2397;53.576;9.746;2022-07-10T03:25:30;9.97;;;3.10;;
4766;SDS011;2397;53.576;9.746;2022-07-10T03:27:56;11.70;;;2.90;;
4766;SDS011;2397;53.576;9.746;2022-07-10T03:30:21;8.63;;;3.00;;
4766;SDS011;2397;53.576;9.746;2022-07-10T03:32:46;9.30;;;2.33;;
4766;SDS011;2397;53.576;9.746;2022-07-10T03:35:11;12.10;;;2.50;;
4766;SDS011;2397;53.576;9.746;2022-07-10T03:37:37;4.37;;;2.10;;
4766;SDS011;2397;53.576;9.746;2022-07-10T03:40:02;6.60;;;2.33;;
4766;SDS011;2397;53.576;9.746;2022-07-10T03:42:28;8.00;;;2.73;;
4766;SDS011;2397;53.576;9.746;2022-07-10T03:44:53;8.73;;;2.90;;
4766;SDS011;2397;53.576;9.746;2022-07-10T03:47:18;5.70;;;2.63;;
4766;SDS011;2397;53.576;9.746;2022-07-10T03:49:43;12.20;;;2.90;;
4766;SDS011;2397;53.576;9.746;2022-07-10T03:52:09;7.40;;;2.20;;
4766;SDS011;2397;53.576;9.746;2022-07-10T03:54:34;7.90;;;3.20;;
4766;SDS011;2397;53.576;9.746;2022-07-10T03:56:59;8.97;;;2.57;;
4766;SDS011;2397;53.576;9.746;2022-07-10T03:59:43;8.27;;;3.00;;
4766;SDS011;2397;53.576;9.746;2022-07-10T04:02:08;6.90;;;2.53;;
4766;SDS011;2397;53.576;9.746;2022-07-10T04:04:34;9.70;;;3.13;;
4766;SDS011;2397;53.576;9.746;2022-07-10T04:06:59;4.10;;;2.43;;
4766;SDS011;2397;53.576;9.746;2022-07-10T04:09:24;8.40;;;3.33;;
4766;SDS011;2397;53.576;9.746;2022-07-10T04:11:50;7.83;;;3.20;;
4766;SDS011;2397;53.576;9.746;2022-07-10T04:14:15;11.80;;;3.37;;
4766;SDS011;2397;53.576;9.746;2022-07-10T04:16:40;12.70;;;5.20;;
4766;SDS011;2397;53.576;9.746;2022-07-10T04:19:06;9.70;;;2.80;;
4766;SDS011;2397;53.576;9.746;2022-07-10T04:21:31;9.73;;;2.80;;
4766;SDS011;2397;53.576;9.746;2022-07-10T04:23:56;3.40;;;2.40;;
4766;SDS011;2397;53.576;9.746;2022-07-10T04:26:22;14.90;;;3.07;;
4766;SDS011;2397;53.576;9.746;2022-07-10T04:28:48;7.40;;;2.80;;
4766;SDS011;2397;53.576;9.746;2022-07-10T04:31:13;11.23;;;3.40;;
4766;SDS011;2397;53.576;9.746;2022-07-10T04:33:38;14.57;;;3.50;;
4766;SDS011;2397;53.576;9.746;2022-07-10T04:36:04;7.40;;;3.10;;
4766;SDS011;2397;53.576;9.746;2022-07-10T04:38:29;7.70;;;2.30;;
4766;SDS011;2397;53.576;9.746;2022-07-10T04:40:56;7.00;;;3.00;;
4766;SDS011;2397;53.576;9.746;2022-07-10T04:43:21;10.43;;;2.87;;
4766;SDS011;2397;53.576;9.746;2022-07-10T04:45:47;11.57;;;3.30;;
4766;SDS011;2397;53.576;9.746;2022-07-10T04:48:12;9.90;;;3.07;;
4766;SDS011;2397;53.576;9.746;2022-07-10T04:50:37;14.13;;;3.37;;
4766;SDS011;2397;53.576;9.746;2022-07-10T04:53:02;7.50;;;3.10;;
4766;SDS011;2397;53.576;9.746;2022-07-10T04:55:28;7.53;;;3.37;;
4766;SDS011;2397;53.576;9.746;2022-07-10T04:57:53;12.27;;;3.90;;
4766;SDS011;2397;53.576;9.746;2022-07-10T05:00:18;7.60;;;3.37;;
4766;SDS011;2397;53.576;9.746;2022-07-10T05:02:43;10.10;;;3.13;;
4766;SDS011;2397;53.576;9.746;2022-07-10T05:05:09;12.67;;;3.67;;
4766;SDS011;2397;53.576;9.746;2022-07-10T05:07:34;12.13;;;3.43;;
4766;SDS011;2397;53.576;9.746;2022-07-10T05:10:00;8.00;;;3.30;;
4766;SDS011;2397;53.576;9.746;2022-07-10T05:12:25;12.53;;;3.13;;
4766;SDS011;2397;53.576;9.746;2022-07-10T05:14:51;13.80;;;3.00;;
4766;SDS011;2397;53.576;9.746;2022-07-10T05:17:16;15.70;;;3.93;;
4766;SDS011;2397;53.576;9.746;2022-07-10T05:19:41;6.63;;;3.03;;
4766;SDS011;2397;53.576;9.746;2022-07-10T05:22:06;11.00;;;3.17;;
4766;SDS011;2397;53.576;9.746;2022-07-10T05:24:32;8.37;;;3.53;;
4766;SDS011;2397;53.576;9.746;2022-07-10T05:26:57;12.97;;;3.10;;
4766;SDS011;2397;53.576;9.746;2022-07-10T05:29:23;11.23;;;3.70;;
4766;SDS011;2397;53.576;9.746;2022-07-10T05:31:48;15.10;;;4.30;;
4766;SDS011;2397;53.576;9.746;2022-07-10T05:34:13;7.40;;;2.80;;
4766;SDS011;2397;53.576;9.746;2022-07-10T05:36:38;14.20;;;3.00;;
4766;SDS011;2397;53.576;9.746;2022-07-10T05:39:04;17.43;;;3.40;;
4766;SDS011;2397;53.576;9.746;2022-07-10T05:41:29;11.80;;;2.97;;
4766;SDS011;2397;53.576;9.746;2022-07-10T05:43:57;13.73;;;2.90;;
4766;SDS011;2397;53.576;9.746;2022-07-10T05:46:22;14.20;;;4.20;;
4766;SDS011;2397;53.576;9.746;2022-07-10T05:48:48;14.47;;;3.10;;
4766;SDS011;2397;53.576;9.746;2022-07-10T05:51:13;11.30;;;3.27;;
4766;SDS011;2397;53.576;9.746;2022-07-10T05:53:38;13.67;;;3.00;;
4766;SDS011;2397;53.576;9.746;2022-07-10T05:56:03;8.00;;;3.30;;
4766;SDS011;2397;53.576;9.746;2022-07-10T05:58:29;14.40;;;3.40;;
4766;SDS011;2397;53.576;9.746;2022-07-10T06:00:54;13.20;;;3.30;;
4766;SDS011;2397;53.576;9.746;2022-07-10T06:03:20;8.17;;;2.90;;
4766;SDS011;2397;53.576;9.746;2022-07-10T06:05:46;9.53;;;2.90;;
4766;SDS011;2397;53.576;9.746;2022-07-10T06:08:12;12.67;;;3.20;;
4766;SDS011;2397;53.576;9.746;2022-07-10T06:10:37;11.97;;;4.00;;
4766;SDS011;2397;53.576;9.746;2022-07-10T06:13:04;10.50;;;3.10;;
4766;SDS011;2397;53.576;9.746;2022-07-10T06:15:29;8.27;;;2.70;;
4766;SDS011;2397;53.576;9.746;2022-07-10T06:17:57;15.73;;;4.10;;
4766;SDS011;2397;53.576;9.746;2022-07-10T06:20:24;14.80;;;3.20;;
4766;SDS011;2397;53.576;9.746;2022-07-10T06:22:51;14.30;;;4.83;;
4766;SDS011;2397;53.576;9.746;2022-07-10T06:25:16;13.53;;;3.53;;
4766;SDS011;2397;53.576;9.746;2022-07-10T06:27:41;14.83;;;3.33;;
4766;SDS011;2397;53.576;9.746;2022-07-10T06:30:06;11.57;;;3.00;;
4766;SDS011;2397;53.576;9.746;2022-07-10T06:32:32;12.83;;;2.90;;
4766;SDS011;2397;53.576;9.746;2022-07-10T06:34:57;11.00;;;3.07;;
4766;SDS011;2397;53.576;9.746;2022-07-10T06:37:23;11.43;;;3.03;;
4766;SDS011;2397;53.576;9.746;2022-07-10T06:39:48;7.13;;;3.60;;
4766;SDS011;2397;53.576;9.746;2022-07-10T06:42:13;9.20;;;3.30;;
4766;SDS011;2397;53.576;9.746;2022-07-10T06:44:39;11.63;;;3.30;;
4766;SDS011;2397;53.576;9.746;2022-07-10T06:47:06;9.57;;;3.20;;
4766;SDS011;2397;53.576;9.746;2022-07-10T06:49:50;8.10;;;2.93;;
4766;SDS011;2397;53.576;9.746;2022-07-10T06:52:16;9.77;;;2.70;;
4766;SDS011;2397;53.576;9.746;2022-07-10T06:54:42;13.53;;;3.97;;
4766;SDS011;2397;53.576;9.746;2022-07-10T06:57:08;11.13;;;3.40;;
4766;SDS011;2397;53.576;9.746;2022-07-10T06:59:33;14.77;;;4.13;;
4766;SDS011;2397;53.576;9.746;2022-07-10T07:01:59;8.80;;;2.87;;
4766;SDS011;2397;53.576;9.746;2022-07-10T07:04:24;15.20;;;2.90;;
4766;SDS011;2397;53.576;9.746;2022-07-10T07:06:49;12.50;;;3.07;;
4766;SDS011;2397;53.576;9.746;2022-07-10T07:09:15;9.90;;;2.77;;
4766;SDS011;2397;53.576;9.746;2022-07-10T07:11:40;8.20;;;3.10;;
4766;SDS011;2397;53.576;9.746;2022-07-10T07:14:05;7.63;;;2.80;;
4766;SDS011;2397;53.576;9.746;2022-07-10T07:16:30;9.20;;;2.47;;
4766;SDS011;2397;53.576;9.746;2022-07-10T07:19:09;10.80;;;2.50;;
4766;SDS011;2397;53.576;9.746;2022-07-10T07:21:36;7.13;;;2.23;;
4766;SDS011;2397;53.576;9.746;2022-07-10T07:24:21;12.90;;;3.30;;
4766;SDS011;2397;53.576;9.746;2022-07-10T07:26:46;5.80;;;2.13;;
4766;SDS011;2397;53.576;9.746;2022-07-10T07:29:15;11.27;;;2.70;;
4766;SDS011;2397;53.576;9.746;2022-07-10T07:31:41;6.43;;;2.67;;
4766;SDS011;2397;53.576;9.746;2022-07-10T07:34:06;10.47;;;2.70;;
4766;SDS011;2397;53.576;9.746;2022-07-10T07:36:32;10.30;;;2.63;;
4766;SDS011;2397;53.576;9.746;2022-07-10T07:38:57;11.70;;;2.80;;
4766;SDS011;2397;53.576;9.746;2022-07-10T07:41:22;5.67;;;2.67;;
4766;SDS011;2397;53.576;9.746;2022-07-10T07:43:48;11.10;;;3.00;;
4766;SDS011;2397;53.576;9.746;2022-07-10T07:46:13;8.73;;;2.83;;
4766;SDS011;2397;53.576;9.746;2022-07-10T07:48:39;10.00;;;2.70;;
4766;SDS011;2397;53.576;9.746;2022-07-10T07:51:04;11.83;;;2.37;;
4766;SDS011;2397;53.576;9.746;2022-07-10T07:53:29;6.40;;;2.60;;
4766;SDS011;2397;53.576;9.746;2022-07-10T07:55:55;13.00;;;2.63;;
4766;SDS011;2397;53.576;9.746;2022-07-10T07:58:20;10.10;;;2.20;;
4766;SDS011;2397;53.576;9.746;2022-07-10T08:00:45;10.33;;;3.10;;
4766;SDS011;2397;53.576;9.746;2022-07-10T08:03:10;9.57;;;2.20;;
4766;SDS011;2397;53.576;9.746;2022-07-10T08:05:36;7.23;;;2.20;;
4766;SDS011;2397;53.576;9.746;2022-07-10T08:08:01;9.30;;;3.03;;
4766;SDS011;2397;53.576;9.746;2022-07-10T08:10:32;8.50;;;2.13;;
4766;SDS011;2397;53.576;9.746;2022-07-10T08:12:58;7.83;;;2.40;;
4766;SDS011;2397;53.576;9.746;2022-07-10T08:15:23;8.97;;;2.73;;
4766;SDS011;2397;53.576;9.746;2022-07-10T08:17:49;6.47;;;2.40;;
4766;SDS011;2397;53.576;9.746;2022-07-10T08:20:15;6.60;;;2.13;;
4766;SDS011;2397;53.576;9.746;2022-07-10T08:22:41;9.20;;;2.77;;
4766;SDS011;2397;53.576;9.746;2022-07-10T08:25:06;7.57;;;2.50;;
4766;SDS011;2397;53.576;9.746;2022-07-10T08:27:33;14.23;;;3.30;;
4766;SDS011;2397;53.576;9.746;2022-07-10T08:29:58;8.57;;;2.23;;
4766;SDS011;2397;53.576;9.746;2022-07-10T08:32:23;9.10;;;2.17;;
4766;SDS011;2397;53.576;9.746;2022-07-10T08:34:49;8.27;;;3.07;;
4766;SDS011;2397;53.576;9.746;2022-07-10T08:37:14;11.90;;;2.60;;
4766;SDS011;2397;53.576;9.746;2022-07-10T08:39:40;6.20;;;2.10;;
4766;SDS011;2397;53.576;9.746;2022-07-10T08:42:06;10.23;;;2.73;;
4766;SDS011;2397;53.576;9.746;2022-07-10T08:44:33;5.77;;;1.93;;
4766;SDS011;2397;53.576;9.746;2022-07-10T08:46:59;6.43;;;2.50;;
4766;SDS011;2397;53.576;9.746;2022-07-10T08:49:26;8.10;;;1.80;;
4766;SDS011;2397;53.576;9.746;2022-07-10T08:51:56;11.87;;;2.57;;
4766;SDS011;2397;53.576;9.746;2022-07-10T08:54:24;5.33;;;2.07;;
4766;SDS011;2397;53.576;9.746;2022-07-10T08:56:52;12.37;;;3.10;;
4766;SDS011;2397;53.576;9.746;2022-07-10T08:59:17;3.27;;;2.10;;
4766;SDS011;2397;53.576;9.746;2022-07-10T09:01:44;7.30;;;2.20;;
4766;SDS011;2397;53.576;9.746;2022-07-10T09:04:19;8.87;;;2.67;;
4766;SDS011;2397;53.576;9.746;2022-07-10T09:06:46;4.47;;;1.83;;
4766;SDS011;2397;53.576;9.746;2022-07-10T09:09:12;9.83;;;2.00;;
4766;SDS011;2397;53.576;9.746;2022-07-10T09:11:38;12.30;;;2.53;;
4766;SDS011;2397;53.576;9.746;2022-07-10T09:14:06;8.63;;;2.93;;
4766;SDS011;2397;53.576;9.746;2022-07-10T09:16:36;5.30;;;1.97;;
4766;SDS011;2397;53.576;9.746;2022-07-10T09:21:52;4.40;;;2.30;;
4766;SDS011;2397;53.576;9.746;2022-07-10T09:24:18;4.77;;;1.80;;
4766;SDS011;2397;53.576;9.746;2022-07-10T09:26:57;3.50;;;1.80;;
4766;SDS011;2397;53.576;9.746;2022-07-10T09:29:25;5.07;;;1.97;;
4766;SDS011;2397;53.576;9.746;2022-07-10T09:31:55;8.53;;;2.00;;
4766;SDS011;2397;53.576;9.746;2022-07-10T09:34:37;6.47;;;2.10;;
4766;SDS011;2397;53.576;9.746;2022-07-10T09:37:19;8.53;;;2.40;;
4766;SDS011;2397;53.576;9.746;2022-07-10T09:40:02;3.07;;;1.70;;
4766;SDS011;2397;53.576;9.746;2022-07-10T09:42:30;5.57;;;1.70;;
4766;SDS011;2397;53.576;9.746;2022-07-10T09:45:13;4.83;;;2.20;;
4766;SDS011;2397;53.576;9.746;2022-07-10T09:47:43;5.47;;;1.97;;
4766;SDS011;2397;53.576;9.746;2022-07-10T09:52:56;7.20;;;2.30;;
4766;SDS011;2397;53.576;9.746;2022-07-10T09:55:26;6.93;;;2.10;;
4766;SDS011;2397;53.576;9.746;2022-07-10T09:57:58;6.23;;;2.20;;
4766;SDS011;2397;53.576;9.746;2022-07-10T10:00:28;7.53;;;2.00;;
4766;SDS011;2397;53.576;9.746;2022-07-10T10:02:56;6.23;;;2.17;;
4766;SDS011;2397;53.576;9.746;2022-07-10T10:05:28;7.70;;;2.30;;
4766;SDS011;2397;53.576;9.746;2022-07-10T10:08:01;5.40;;;2.07;;
4766;SDS011;2397;53.576;9.746;2022-07-10T10:10:31;8.43;;;2.87;;
4766;SDS011;2397;53.576;9.746;2022-07-10T10:12:58;4.10;;;2.20;;
4766;SDS011;2397;53.576;9.746;2022-07-10T10:15:24;7.30;;;2.03;;
4766;SDS011;2397;53.576;9.746;2022-07-10T10:17:51;12.23;;;2.40;;
4766;SDS011;2397;53.576;9.746;2022-07-10T10:20:17;7.00;;;2.70;;
4766;SDS011;2397;53.576;9.746;2022-07-10T10:23:03;8.30;;;2.60;;
4766;SDS011;2397;53.576;9.746;2022-07-10T10:25:31;13.03;;;3.03;;
4766;SDS011;2397;53.576;9.746;2022-07-10T10:28:00;9.60;;;2.60;;
4766;SDS011;2397;53.576;9.746;2022-07-10T10:30:29;6.63;;;2.10;;
4766;SDS011;2397;53.576;9.746;2022-07-10T10:32:56;6.93;;;2.00;;
4766;SDS011;2397;53.576;9.746;2022-07-10T10:38:08;8.87;;;2.47;;
4766;SDS011;2397;53.576;9.746;2022-07-10T10:40:34;11.77;;;2.93;;
4766;SDS011;2397;53.576;9.746;2022-07-10T10:43:15;9.70;;;2.60;;
4766;SDS011;2397;53.576;9.746;2022-07-10T10:45:48;6.43;;;2.30;;
4766;SDS011;2397;53.576;9.746;2022-07-10T10:48:15;5.27;;;1.63;;
4766;SDS011;2397;53.576;9.746;2022-07-10T10:50:49;8.77;;;2.10;;
4766;SDS011;2397;53.576;9.746;2022-07-10T10:53:16;5.77;;;2.20;;
4766;SDS011;2397;53.576;9.746;2022-07-10T10:58:24;4.90;;;1.80;;
4766;SDS011;2397;53.576;9.746;2022-07-10T11:00:50;6.90;;;2.20;;
4766;SDS011;2397;53.576;9.746;2022-07-10T11:03:17;6.77;;;2.10;;
4766;SDS011;2397;53.576;9.746;2022-07-10T11:05:44;5.63;;;2.20;;
4766;SDS011;2397;53.576;9.746;2022-07-10T11:08:11;4.80;;;2.00;;
4766;SDS011;2397;53.576;9.746;2022-07-10T11:10:38;3.27;;;1.53;;
4766;SDS011;2397;53.576;9.746;2022-07-10T11:13:09;4.00;;;1.80;;
4766;SDS011;2397;53.576;9.746;2022-07-10T11:15:37;7.27;;;2.10;;
4766;SDS011;2397;53.576;9.746;2022-07-10T11:18:11;9.27;;;2.00;;
4766;SDS011;2397;53.576;9.746;2022-07-10T11:20:39;5.10;;;1.70;;
4766;SDS011;2397;53.576;9.746;2022-07-10T11:23:26;7.67;;;2.00;;
4766;SDS011;2397;53.576;9.746;2022-07-10T11:26:04;6.17;;;1.90;;
4766;SDS011;2397;53.576;9.746;2022-07-10T11:28:41;7.53;;;2.27;;
4766;SDS011;2397;53.576;9.746;2022-07-10T11:31:27;11.50;;;2.50;;
4766;SDS011;2397;53.576;9.746;2022-07-10T11:33:55;3.70;;;2.00;;
4766;SDS011;2397;53.576;9.746;2022-07-10T11:36:22;9.33;;;1.80;;
4766;SDS011;2397;53.576;9.746;2022-07-10T11:39:04;7.40;;;2.20;;
4766;SDS011;2397;53.576;9.746;2022-07-10T11:41:31;7.23;;;1.90;;
4766;SDS011;2397;53.576;9.746;2022-07-10T11:43:57;6.03;;;2.87;;
4766;SDS011;2397;53.576;9.746;2022-07-10T11:46:24;8.10;;;2.27;;
4766;SDS011;2397;53.576;9.746;2022-07-10T11:48:53;6.63;;;2.10;;
4766;SDS011;2397;53.576;9.746;2022-07-10T11:51:27;6.20;;;2.17;;
4766;SDS011;2397;53.576;9.746;2022-07-10T11:56:30;7.70;;;3.13;;
4766;SDS011;2397;53.576;9.746;2022-07-10T11:59:00;5.80;;;2.10;;
4766;SDS011;2397;53.576;9.746;2022-07-10T12:01:48;7.37;;;2.70;;
4766;SDS011;2397;53.576;9.746;2022-07-10T12:04:14;5.03;;;2.30;;
4766;SDS011;2397;53.576;9.746;2022-07-10T12:06:42;7.37;;;2.27;;
4766;SDS011;2397;53.576;9.746;2022-07-10T12:09:09;6.43;;;2.33;;
4766;SDS011;2397;53.576;9.746;2022-07-10T12:11:37;4.43;;;1.63;;
4766;SDS011;2397;53.576;9.746;2022-07-10T12:16:36;4.63;;;1.80;;
4766;SDS011;2397;53.576;9.746;2022-07-10T12:19:03;6.20;;;1.60;;
4766;SDS011;2397;53.576;9.746;2022-07-10T12:21:28;6.90;;;1.90;;
4766;SDS011;2397;53.576;9.746;2022-07-10T12:23:54;3.87;;;2.00;;
4766;SDS011;2397;53.576;9.746;2022-07-10T12:26:20;3.67;;;2.00;;
4766;SDS011;2397;53.576;9.746;2022-07-10T12:28:55;8.07;;;1.90;;
4766;SDS011;2397;53.576;9.746;2022-07-10T12:31:21;6.80;;;1.67;;
4766;SDS011;2397;53.576;9.746;2022-07-10T12:33:51;2.90;;;2.57;;
4766;SDS011;2397;53.576;9.746;2022-07-10T12:36:18;3.70;;;1.70;;
4766;SDS011;2397;53.576;9.746;2022-07-10T12:38:52;3.37;;;1.93;;
4766;SDS011;2397;53.576;9.746;2022-07-10T12:41:18;4.60;;;2.03;;
4766;SDS011;2397;53.576;9.746;2022-07-10T12:43:48;10.03;;;1.83;;
4766;SDS011;2397;53.576;9.746;2022-07-10T12:46:14;6.20;;;2.00;;
4766;SDS011;2397;53.576;9.746;2022-07-10T12:49:02;4.60;;;2.10;;
4766;SDS011;2397;53.576;9.746;2022-07-10T12:51:33;9.77;;;2.50;;
4766;SDS011;2397;53.576;9.746;2022-07-10T12:54:07;3.27;;;1.83;;
4766;SDS011;2397;53.576;9.746;2022-07-10T12:56:36;8.60;;;2.13;;
4766;SDS011;2397;53.576;9.746;2022-07-10T12:59:03;6.80;;;1.70;;
4766;SDS011;2397;53.576;9.746;2022-07-10T13:01:41;4.27;;;1.87;;
4766;SDS011;2397;53.576;9.746;2022-07-10T13:04:07;6.60;;;2.20;;
4766;SDS011;2397;53.576;9.746;2022-07-10T13:06:33;5.73;;;2.30;;
4766;SDS011;2397;53.576;9.746;2022-07-10T13:09:01;6.90;;;2.07;;
4766;SDS011;2397;53.576;9.746;2022-07-10T13:11:27;7.30;;;2.57;;
4766;SDS011;2397;53.576;9.746;2022-07-10T13:13:52;6.90;;;2.77;;
4766;SDS011;2397;53.576;9.746;2022-07-10T13:16:18;5.50;;;2.00;;
4766;SDS011;2397;53.576;9.746;2022-07-10T13:18:44;3.80;;;1.80;;
4766;SDS011;2397;53.576;9.746;2022-07-10T13:21:09;4.43;;;1.80;;
4766;SDS011;2397;53.576;9.746;2022-07-10T13:23:38;4.27;;;1.57;;
4766;SDS011;2397;53.576;9.746;2022-07-10T13:26:04;6.90;;;1.73;;
4766;SDS011;2397;53.576;9.746;2022-07-10T13:28:32;4.27;;;1.90;;
4766;SDS011;2397;53.576;9.746;2022-07-10T13:30:57;5.13;;;2.03;;
4766;SDS011;2397;53.576;9.746;2022-07-10T13:33:23;5.03;;;2.33;;
4766;SDS011;2397;53.576;9.746;2022-07-10T13:35:49;5.30;;;2.23;;
4766;SDS011;2397;53.576;9.746;2022-07-10T13:38:14;5.20;;;2.07;;
4766;SDS011;2397;53.576;9.746;2022-07-10T13:40:40;5.27;;;2.00;;
4766;SDS011;2397;53.576;9.746;2022-07-10T13:43:05;4.70;;;1.60;;
4766;SDS011;2397;53.576;9.746;2022-07-10T13:45:31;8.87;;;3.67;;
4766;SDS011;2397;53.576;9.746;2022-07-10T13:48:05;5.53;;;2.20;;
4766;SDS011;2397;53.576;9.746;2022-07-10T13:50:30;3.30;;;1.73;;
4766;SDS011;2397;53.576;9.746;2022-07-10T13:52:55;8.50;;;2.87;;
4766;SDS011;2397;53.576;9.746;2022-07-10T13:55:21;5.93;;;1.77;;
4766;SDS011;2397;53.576;9.746;2022-07-10T13:57:46;5.60;;;2.00;;
4766;SDS011;2397;53.576;9.746;2022-07-10T14:00:12;4.77;;;1.80;;
4766;SDS011;2397;53.576;9.746;2022-07-10T14:02:38;5.67;;;2.27;;
4766;SDS011;2397;53.576;9.746;2022-07-10T14:05:03;6.97;;;1.50;;
4766;SDS011;2397;53.576;9.746;2022-07-10T14:07:29;7.47;;;2.17;;
4766;SDS011;2397;53.576;9.746;2022-07-10T14:09:54;7.43;;;2.37;;
4766;SDS011;2397;53.576;9.746;2022-07-10T14:12:20;8.07;;;2.00;;
4766;SDS011;2397;53.576;9.746;2022-07-10T14:14:45;3.50;;;1.90;;
4766;SDS011;2397;53.576;9.746;2022-07-10T14:17:11;3.97;;;1.90;;
4766;SDS011;2397;53.576;9.746;2022-07-10T14:19:37;5.57;;;1.80;;
4766;SDS011;2397;53.576;9.746;2022-07-10T14:22:02;6.77;;;2.67;;
4766;SDS011;2397;53.576;9.746;2022-07-10T14:24:27;7.03;;;2.40;;
4766;SDS011;2397;53.576;9.746;2022-07-10T14:26:53;3.90;;;1.70;;
4766;SDS011;2397;53.576;9.746;2022-07-10T14:29:19;8.17;;;2.57;;
4766;SDS011;2397;53.576;9.746;2022-07-10T14:31:45;6.37;;;2.17;;
4766;SDS011;2397;53.576;9.746;2022-07-10T14:34:13;2.67;;;2.10;;
4766;SDS011;2397;53.576;9.746;2022-07-10T14:36:39;8.27;;;2.63;;
4766;SDS011;2397;53.576;9.746;2022-07-10T14:39:06;5.37;;;2.30;;
4766;SDS011;2397;53.576;9.746;2022-07-10T14:41:31;14.37;;;2.03;;
4766;SDS011;2397;53.576;9.746;2022-07-10T14:43:57;7.10;;;2.00;;
4766;SDS011;2397;53.576;9.746;2022-07-10T14:46:22;6.37;;;1.83;;
4766;SDS011;2397;53.576;9.746;2022-07-10T14:48:48;8.07;;;2.10;;
4766;SDS011;2397;53.576;9.746;2022-07-10T14:51:15;8.43;;;2.63;;
4766;SDS011;2397;53.576;9.746;2022-07-10T14:53:40;10.83;;;2.50;;
4766;SDS011;2397;53.576;9.746;2022-07-10T14:56:06;7.13;;;1.87;;
4766;SDS011;2397;53.576;9.746;2022-07-10T14:58:32;4.83;;;1.90;;
4766;SDS011;2397;53.576;9.746;2022-07-10T15:00:57;4.87;;;1.80;;
4766;SDS011;2397;53.576;9.746;2022-07-10T15:03:23;8.23;;;2.20;;
4766;SDS011;2397;53.576;9.746;2022-07-10T15:05:49;7.57;;;3.20;;
4766;SDS011;2397;53.576;9.746;2022-07-10T15:08:18;7.30;;;2.50;;
4766;SDS011;2397;53.576;9.746;2022-07-10T15:10:44;4.77;;;1.70;;
4766;SDS011;2397;53.576;9.746;2022-07-10T15:13:11;7.43;;;1.90;;
4766;SDS011;2397;53.576;9.746;2022-07-10T15:15:36;7.07;;;1.97;;
4766;SDS011;2397;53.576;9.746;2022-07-10T15:18:02;9.43;;;1.90;;
4766;SDS011;2397;53.576;9.746;2022-07-10T15:20:27;5.70;;;1.90;;
4766;SDS011;2397;53.576;9.746;2022-07-10T15:22:52;2.90;;;1.60;;
4766;SDS011;2397;53.576;9.746;2022-07-10T15:25:18;6.53;;;2.13;;
4766;SDS011;2397;53.576;9.746;2022-07-10T15:27:43;6.83;;;2.03;;